Time;durP1;ratioP1;P1;durP2;ratioP2;P2;SDS_P1;SDS_P2;PMS_P1;PMS_P2;Temp;Humidity;BMP_temperature;BMP_pressure;BME280_temperature;BME280_humidity;BME280_pressure;Samples;Min_cycle;Max_cycle;Signal;HPM_P1;HPM_P2
2021/08/18 00:00:16;;;;;;;;;;;;;;;;;;5133205;28;19935;-76
2021/08/18 00:02:43;;;;;;;;;;;;;;;;;;5132918;28;19928;-75
2021/08/18 00:05:09;;;;;;;;;;;;;;;;;;5133380;28;19923;-76
2021/08/18 00:07:35;;;;;;;;;;;;;;;;;;5132810;28;19934;-75
2021/08/18 00:10:01;;;;;;;;;;;;;;;;;;5133572;28;19924;-75
2021/08/18 00:12:28;;;;;;;;;;;;;;;;;;5132705;28;19924;-76
2021/08/18 00:14:54;;;;;;;;;;;;;;;;;;5133304;28;19931;-76
2021/08/18 00:17:20;;;;;;;;;;;;;;;;;;5132711;28;19923;-76
2021/08/18 00:19:47;;;;;;;;;;;;;;;;;;5132926;28;19927;-75
2021/08/18 00:22:13;;;;;;;;;;;;;;;;;;5132834;28;19931;-76
2021/08/18 00:24:39;;;;;;;;;;;;;;;;;;5132902;28;19931;-75
2021/08/18 00:27:05;;;;;;;;;;;;;;;;;;5133054;27;19923;-75
2021/08/18 00:29:32;;;;;;;;;;;;;;;;;;5136703;27;19930;-75
2021/08/18 00:31:58;;;;;;;;;;;;;;;;;;5136595;27;20400;-75
2021/08/18 00:34:24;;;;;;;;;;;;;;;;;;5136624;27;19931;-75
2021/08/18 00:36:50;;;;;;;;;;;;;;;;;;5136395;27;19935;-75
2021/08/18 00:39:17;;;;;;;;;;;;;;;;;;5136451;27;19927;-75
2021/08/18 00:41:43;;;;;;;;;;;;;;;;;;5136275;27;20009;-75
2021/08/18 00:44:09;;;;;;;;;;;;;;;;;;5136540;27;19931;-75
2021/08/18 00:46:36;;;;;;;;;;;;;;;;;;5136028;27;19927;-75
2021/08/18 00:49:02;;;;;;;;;;;;;;;;;;5136451;27;19924;-75
2021/08/18 00:51:28;;;;;;;;;;;;;;;;;;5135925;27;19930;-75
2021/08/18 00:53:54;;;;;;;;;;;;;;;;;;5136492;27;20073;-76
2021/08/18 00:56:21;;;;;;;;;;;;;;;;;;5135751;27;19924;-75
2021/08/18 00:58:47;;;;;;;;;;;;;;;;;;5136260;27;19928;-75
2021/08/18 01:01:13;;;;;;;;;;;;;;;;;;5135962;27;19923;-75
2021/08/18 01:03:40;;;;;;;;;;;;;;;;;;5136271;27;19924;-76
2021/08/18 01:06:06;;;;;;;;;;;;;;;;;;5135928;27;19930;-76
2021/08/18 01:08:34;;;;;;;;;;;;;;;;;;5135862;27;20028;-76
2021/08/18 01:11:00;;;;;;;;;;;;;;;;;;5136017;27;19923;-76
2021/08/18 01:13:28;;;;;;;;;;;;;;;;;;5135541;27;19955;-75
2021/08/18 01:15:54;;;;;;;;;;;;;;;;;;5135944;27;19923;-75
2021/08/18 01:18:20;;;;;;;;;;;;;;;;;;5135428;27;19923;-75
2021/08/18 01:20:47;;;;;;;;;;;;;;;;;;5135418;27;19946;-75
2021/08/18 01:23:13;;;;;;;;;;;;;;;;;;5135505;27;20376;-75
2021/08/18 01:25:39;;;;;;;;;;;;;;;;;;5135598;27;19937;-76
2021/08/18 01:28:05;;;;;;;;;;;;;;;;;;5135678;27;20289;-76
2021/08/18 01:30:32;;;;;;;;;;;;;;;;;;5135508;27;19924;-75
2021/08/18 01:32:58;;;;;;;;;;;;;;;;;;5135371;27;20400;-75
2021/08/18 01:35:24;;;;;;;;;;;;;;;;;;5135346;27;19931;-75
2021/08/18 01:37:51;;;;;;;;;;;;;;;;;;5135609;27;19923;-75
2021/08/18 01:40:17;;;;;;;;;;;;;;;;;;5134884;27;20305;-75
2021/08/18 01:42:43;;;;;;;;;;;;;;;;;;5135198;27;19923;-76
2021/08/18 01:45:09;;;;;;;;;;;;;;;;;;5135595;27;20284;-75
2021/08/18 01:47:36;;;;;;;;;;;;;;;;;;5135169;27;19927;-75
2021/08/18 01:50:02;;;;;;;;;;;;;;;;;;5135067;27;20385;-75
2021/08/18 01:52:28;;;;;;;;;;;;;;;;;;5135052;27;19931;-75
2021/08/18 01:54:55;;;;;;;;;;;;;;;;;;5134819;27;20393;-75
2021/08/18 01:57:21;;;;;;;;;;;;;;;;;;5134954;27;19924;-75
2021/08/18 01:59:47;;;;;;;;;;;;;;;;;;5134830;27;20408;-75
2021/08/18 02:02:13;;;;;;;;;;;;;;;;;;5135042;27;19931;-75
2021/08/18 02:04:40;;;;;;;;;;;;;;;;;;5134360;27;19930;-75
2021/08/18 02:07:06;;;;;;;;;;;;;;;;;;5134991;27;19923;-75
2021/08/18 02:09:32;;;;;;;;;;;;;;;;;;5134403;27;19923;-75
2021/08/18 02:11:58;;;;;;;;;;;;;;;;;;5134891;27;19924;-75
2021/08/18 02:14:25;;;;;;;;;;;;;;;;;;5134119;27;19924;-75
2021/08/18 02:16:51;;;;;;;;;;;;;;;;;;5134808;27;19946;-75
2021/08/18 02:19:17;;;;;;;;;;;;;;;;;;5133872;27;19927;-75
2021/08/18 02:21:44;;;;;;;;;;;;;;;;;;5134420;27;20297;-75
2021/08/18 02:24:10;;;;;;;;;;;;;;;;;;5134527;27;19923;-75
2021/08/18 02:26:36;;;;;;;;;;;;;;;;;;5134093;27;20289;-75
2021/08/18 02:29:02;;;;;;;;;;;;;;;;;;5134220;27;19923;-75
2021/08/18 02:31:30;;;;;;;;;;;;;;;;;;5134278;27;19924;-75
2021/08/18 02:33:56;;;;;;;;;;;;;;;;;;5134119;27;19967;-75
2021/08/18 02:36:23;;;;;;;;;;;;;;;;;;5134151;27;19930;-76
2021/08/18 02:38:49;;;;;;;;;;;;;;;;;;5134100;27;19923;-75
2021/08/18 02:41:15;;;;;;;;;;;;;;;;;;5134358;27;19923;-75
2021/08/18 02:43:41;;;;;;;;;;;;;;;;;;5133930;27;19923;-75
2021/08/18 02:46:08;;;;;;;;;;;;;;;;;;5134272;27;19934;-75
2021/08/18 02:48:34;;;;;;;;;;;;;;;;;;5133628;27;19931;-75
2021/08/18 02:51:00;;;;;;;;;;;;;;;;;;5133688;27;19924;-75
2021/08/18 02:53:27;;;;;;;;;;;;;;;;;;5133628;27;19930;-75
2021/08/18 02:55:53;;;;;;;;;;;;;;;;;;5134129;27;19923;-75
2021/08/18 02:58:19;;;;;;;;;;;;;;;;;;5133449;27;19924;-75
2021/08/18 03:00:46;;;;;;;;;;;;;;;;;;5133669;27;19968;-75
2021/08/18 03:03:12;;;;;;;;;;;;;;;;;;5134001;27;19923;-75
2021/08/18 03:05:38;;;;;;;;;;;;;;;;;;5133385;27;19928;-75
2021/08/18 03:08:04;;;;;;;;;;;;;;;;;;5133864;27;19947;-75
2021/08/18 03:10:31;;;;;;;;;;;;;;;;;;5133289;27;19924;-75
2021/08/18 03:12:57;;;;;;;;;;;;;;;;;;5133915;27;19986;-75
2021/08/18 03:15:23;;;;;;;;;;;;;;;;;;5133401;27;19924;-75
2021/08/18 03:17:50;;;;;;;;;;;;;;;;;;5134158;27;19931;-75
2021/08/18 03:20:16;;;;;;;;;;;;;;;;;;5132846;27;20384;-75
2021/08/18 03:22:42;;;;;;;;;;;;;;;;;;5133516;27;19930;-75
2021/08/18 03:25:08;;;;;;;;;;;;;;;;;;5133685;28;19931;-75
2021/08/18 03:27:36;;;;;;;;;;;;;;;;;;5133103;28;19923;-75
2021/08/18 03:30:02;;;;;;;;;;;;;;;;;;5133749;28;19929;-75
2021/08/18 03:32:28;;;;;;;;;;;;;;;;;;5133153;28;19928;-75
2021/08/18 03:34:55;;;;;;;;;;;;;;;;;;5133718;28;19924;-76
2021/08/18 03:37:21;;;;;;;;;;;;;;;;;;5133130;28;19930;-76
2021/08/18 03:39:47;;;;;;;;;;;;;;;;;;5133461;28;19924;-76
2021/08/18 03:42:13;;;;;;;;;;;;;;;;;;5133255;28;19924;-76
2021/08/18 03:44:40;;;;;;;;;;;;;;;;;;5135749;28;19923;-76
2021/08/18 03:47:06;;;;;;;;;;;;;;;;;;5133549;28;19924;-75
2021/08/18 03:49:32;;;;;;;;;;;;;;;;;;5132884;28;20289;-76
2021/08/18 03:51:59;;;;;;;;;;;;;;;;;;5133474;28;19927;-75
2021/08/18 03:54:25;;;;;;;;;;;;;;;;;;5133170;28;20288;-76
2021/08/18 03:56:51;;;;;;;;;;;;;;;;;;5133425;28;19924;-76
2021/08/18 03:59:17;;;;;;;;;;;;;;;;;;5132889;28;20285;-76
2021/08/18 04:01:44;;;;;;;;;;;;;;;;;;5133420;27;19924;-76
2021/08/18 04:04:10;;;;;;;;;;;;;;;;;;5136571;27;19927;-76
2021/08/18 04:06:36;;;;;;;;;;;;;;;;;;5137131;27;19927;-75
2021/08/18 04:09:02;;;;;;;;;;;;;;;;;;5137009;27;19924;-75
2021/08/18 04:11:29;;;;;;;;;;;;;;;;;;5136881;27;19927;-76
2021/08/18 04:13:55;;;;;;;;;;;;;;;;;;5136889;27;19923;-76
2021/08/18 04:16:21;;;;;;;;;;;;;;;;;;5136853;27;19930;-76
2021/08/18 04:18:48;;;;;;;;;;;;;;;;;;5136817;27;19931;-76
2021/08/18 04:21:14;;;;;;;;;;;;;;;;;;5136440;27;19923;-75
2021/08/18 04:23:40;;;;;;;;;;;;;;;;;;5136516;27;19931;-76
2021/08/18 04:26:06;;;;;;;;;;;;;;;;;;5137150;27;19946;-74
2021/08/18 04:28:33;;;;;;;;;;;;;;;;;;5136287;27;19924;-75
2021/08/18 04:30:59;;;;;;;;;;;;;;;;;;5136747;27;19927;-76
2021/08/18 04:33:25;;;;;;;;;;;;;;;;;;5136228;27;19931;-75
2021/08/18 04:35:52;;;;;;;;;;;;;;;;;;5137696;27;19923;-75
2021/08/18 04:38:18;;;;;;;;;;;;;;;;;;5136234;27;19930;-76
2021/08/18 04:40:44;;;;;;;;;;;;;;;;;;5136629;27;19924;-76
2021/08/18 04:43:10;;;;;;;;;;;;;;;;;;5136172;27;19931;-76
2021/08/18 04:45:37;;;;;;;;;;;;;;;;;;5136106;27;19923;-76
2021/08/18 04:48:03;;;;;;;;;;;;;;;;;;5136180;27;19931;-76
2021/08/18 04:50:29;;;;;;;;;;;;;;;;;;5136207;27;19934;-76
2021/08/18 04:52:55;;;;;;;;;;;;;;;;;;5136104;27;19924;-76
2021/08/18 04:55:22;;;;;;;;;;;;;;;;;;5136053;27;19931;-76
2021/08/18 04:57:48;;;;;;;;;;;;;;;;;;5135910;27;19931;-76
2021/08/18 05:00:14;;;;;;;;;;;;;;;;;;5136276;27;19923;-75
2021/08/18 05:02:41;;;;;;;;;;;;;;;;;;5135934;27;20203;-76
2021/08/18 05:05:07;;;;;;;;;;;;;;;;;;5135802;27;20369;-76
2021/08/18 05:07:34;;;;;;;;;;;;;;;;;;5135782;27;19924;-76
2021/08/18 05:10:00;;;;;;;;;;;;;;;;;;5135829;27;19931;-76
2021/08/18 05:12:26;;;;;;;;;;;;;;;;;;5135828;27;19938;-76
2021/08/18 05:14:53;;;;;;;;;;;;;;;;;;5135383;27;19924;-76
2021/08/18 05:17:19;;;;;;;;;;;;;;;;;;5135619;27;19931;-76
2021/08/18 05:19:45;;;;;;;;;;;;;;;;;;5135399;27;19923;-76
2021/08/18 05:22:11;;;;;;;;;;;;;;;;;;5135823;27;19924;-76
2021/08/18 05:24:38;;;;;;;;;;;;;;;;;;5135275;27;19931;-76
2021/08/18 05:27:04;;;;;;;;;;;;;;;;;;5136094;27;19923;-75
2021/08/18 05:29:30;;;;;;;;;;;;;;;;;;5135502;27;19923;-76
2021/08/18 05:31:57;;;;;;;;;;;;;;;;;;5135707;27;19935;-76
2021/08/18 05:34:23;;;;;;;;;;;;;;;;;;5135329;27;20312;-76
2021/08/18 05:36:49;;;;;;;;;;;;;;;;;;5135157;27;19934;-76
2021/08/18 05:39:16;;;;;;;;;;;;;;;;;;5135362;27;19924;-76
2021/08/18 05:41:42;;;;;;;;;;;;;;;;;;5135448;27;19924;-76
2021/08/18 05:44:08;;;;;;;;;;;;;;;;;;5136566;27;19930;-76
2021/08/18 05:46:34;;;;;;;;;;;;;;;;;;5134886;27;19923;-76
2021/08/18 05:49:01;;;;;;;;;;;;;;;;;;5135289;27;20066;-76
2021/08/18 05:51:27;;;;;;;;;;;;;;;;;;5134739;27;20397;-76
2021/08/18 05:53:53;;;;;;;;;;;;;;;;;;5134957;27;19923;-75
2021/08/18 05:56:19;;;;;;;;;;;;;;;;;;5134695;27;19934;-76
2021/08/18 05:58:46;;;;;;;;;;;;;;;;;;5135117;27;19935;-76
2021/08/18 06:01:12;;;;;;;;;;;;;;;;;;5134847;27;20392;-76
2021/08/18 06:03:38;;;;;;;;;;;;;;;;;;5134801;27;19923;-76
2021/08/18 06:06:05;;;;;;;;;;;;;;;;;;5134603;27;20369;-76
2021/08/18 06:08:31;;;;;;;;;;;;;;;;;;5134775;27;19943;-76
2021/08/18 06:10:57;;;;;;;;;;;;;;;;;;5134664;27;19931;-76
2021/08/18 06:13:24;;;;;;;;;;;;;;;;;;5134573;27;19930;-76
2021/08/18 06:15:50;;;;;;;;;;;;;;;;;;5134758;27;19992;-76
2021/08/18 06:18:16;;;;;;;;;;;;;;;;;;5134225;27;19927;-76
2021/08/18 06:20:42;;;;;;;;;;;;;;;;;;5134258;27;19924;-76
2021/08/18 06:23:09;;;;;;;;;;;;;;;;;;5134459;27;19935;-76
2021/08/18 06:25:35;;;;;;;;;;;;;;;;;;5133234;27;19923;-76
2021/08/18 06:28:01;;;;;;;;;;;;;;;;;;5134248;27;19923;-76
2021/08/18 06:30:28;;;;;;;;;;;;;;;;;;5134356;27;19930;-76
2021/08/18 06:32:54;;;;;;;;;;;;;;;;;;5134216;27;19931;-77
2021/08/18 06:35:20;;;;;;;;;;;;;;;;;;5134272;27;19927;-76
2021/08/18 06:37:46;;;;;;;;;;;;;;;;;;5133993;27;19923;-76
2021/08/18 06:40:13;;;;;;;;;;;;;;;;;;5134373;27;20092;-76
2021/08/18 06:42:39;;;;;;;;;;;;;;;;;;5133760;27;19930;-76
2021/08/18 06:45:06;;;;;;;;;;;;;;;;;;5134143;27;19924;-76
2021/08/18 06:47:32;;;;;;;;;;;;;;;;;;5133881;27;19937;-76
2021/08/18 06:49:58;;;;;;;;;;;;;;;;;;5133791;27;19923;-76
2021/08/18 06:52:25;;;;;;;;;;;;;;;;;;5133864;27;19923;-76
2021/08/18 06:54:51;;;;;;;;;;;;;;;;;;5134141;27;19977;-76
2021/08/18 06:57:17;;;;;;;;;;;;;;;;;;5133792;27;20015;-76
2021/08/18 06:59:43;;;;;;;;;;;;;;;;;;5133744;27;19923;-76
2021/08/18 07:02:10;;;;;;;;;;;;;;;;;;5134303;27;19931;-76
2021/08/18 07:04:36;;;;;;;;;;;;;;;;;;5133337;27;19935;-76
2021/08/18 07:07:02;;;;;;;;;;;;;;;;;;5134199;27;19977;-76
2021/08/18 07:09:29;;;;;;;;;;;;;;;;;;5133372;27;19931;-76
2021/08/18 07:11:55;;;;;;;;;;;;;;;;;;5133776;27;19924;-76
2021/08/18 07:14:21;;;;;;;;;;;;;;;;;;5133331;27;19934;-76
2021/08/18 07:16:47;;;;;;;;;;;;;;;;;;5133827;27;19923;-76
2021/08/18 07:19:14;;;;;;;;;;;;;;;;;;5133246;27;20396;-76
2021/08/18 07:21:40;;;;;;;;;;;;;;;;;;5134404;27;19930;-77
2021/08/18 07:24:06;;;;;;;;;;;;;;;;;;5133500;27;19923;-76
2021/08/18 07:26:32;;;;;;;;;;;;;;;;;;5133404;28;19931;-76
2021/08/18 07:28:59;;;;;;;;;;;;;;;;;;5133466;28;19935;-76
2021/08/18 07:31:25;;;;;;;;;;;;;;;;;;5133306;28;19923;-76
2021/08/18 07:33:51;;;;;;;;;;;;;;;;;;5133313;28;19927;-76
2021/08/18 07:36:18;;;;;;;;;;;;;;;;;;5133987;27;19924;-76
2021/08/18 07:38:44;;;;;;;;;;;;;;;;;;5137958;27;19930;-77
2021/08/18 07:41:10;;;;;;;;;;;;;;;;;;5137901;27;19924;-76
2021/08/18 07:43:36;;;;;;;;;;;;;;;;;;5137227;27;19927;-76
2021/08/18 07:46:03;;;;;;;;;;;;;;;;;;5137739;27;19924;-76
2021/08/18 07:48:31;;;;;;;;;;;;;;;;;;5137077;27;19923;-76
2021/08/18 07:50:57;;;;;;;;;;;;;;;;;;5137374;27;19924;-76
2021/08/18 07:53:23;;;;;;;;;;;;;;;;;;5137090;27;19923;-76
2021/08/18 07:55:50;;;;;;;;;;;;;;;;;;5137510;27;19924;-76
2021/08/18 07:58:16;;;;;;;;;;;;;;;;;;5137142;27;19924;-75
2021/08/18 08:00:42;;;;;;;;;;;;;;;;;;5137114;27;19970;-76
2021/08/18 08:03:09;;;;;;;;;;;;;;;;;;5137457;27;19923;-76
2021/08/18 08:05:35;;;;;;;;;;;;;;;;;;5136643;27;19930;-76
2021/08/18 08:08:02;;;;;;;;;;;;;;;;;;5137688;27;19928;-76
2021/08/18 08:10:28;;;;;;;;;;;;;;;;;;5136782;27;19924;-76
2021/08/18 08:12:54;;;;;;;;;;;;;;;;;;5137191;27;19923;-76
2021/08/18 08:15:21;;;;;;;;;;;;;;;;;;5136706;27;19924;-76
2021/08/18 08:17:47;;;;;;;;;;;;;;;;;;5137087;27;19923;-76
2021/08/18 08:20:13;;;;;;;;;;;;;;;;;;5136530;27;19929;-76
2021/08/18 08:22:40;;;;;;;;;;;;;;;;;;5136760;27;19931;-76
2021/08/18 08:25:06;;;;;;;;;;;;;;;;;;5136694;27;19923;-76
2021/08/18 08:27:32;;;;;;;;;;;;;;;;;;5136737;27;19928;-76
2021/08/18 08:29:58;;;;;;;;;;;;;;;;;;5136596;27;19923;-75
2021/08/18 08:32:25;;;;;;;;;;;;;;;;;;5136590;27;19923;-75
2021/08/18 08:34:51;;;;;;;;;;;;;;;;;;5136462;27;19930;-76
2021/08/18 08:37:18;;;;;;;;;;;;;;;;;;5136485;27;19935;-76
2021/08/18 08:39:44;;;;;;;;;;;;;;;;;;5136387;27;19927;-76
2021/08/18 08:42:11;;;;;;;;;;;;;;;;;;5136721;27;19923;-76
2021/08/18 08:44:37;;;;;;;;;;;;;;;;;;5136082;27;19930;-75
2021/08/18 08:47:03;;;;;;;;;;;;;;;;;;5136582;27;20305;-75
2021/08/18 08:49:30;;;;;;;;;;;;;;;;;;5135593;27;19931;-76
2021/08/18 08:51:56;;;;;;;;;;;;;;;;;;5136527;27;20278;-76
2021/08/18 08:54:22;;;;;;;;;;;;;;;;;;5136154;27;19928;-76
2021/08/18 08:56:48;;;;;;;;;;;;;;;;;;5136124;27;20293;-76
2021/08/18 08:59:15;;;;;;;;;;;;;;;;;;5136065;27;19927;-76
2021/08/18 09:01:41;;;;;;;;;;;;;;;;;;5136352;27;19931;-76
2021/08/18 09:04:07;;;;;;;;;;;;;;;;;;5136006;27;19931;-75
2021/08/18 09:06:34;;;;;;;;;;;;;;;;;;5135771;27;19923;-75
2021/08/18 09:09:00;;;;;;;;;;;;;;;;;;5136242;27;19923;-75
2021/08/18 09:11:26;;;;;;;;;;;;;;;;;;5135560;27;19923;-75
2021/08/18 09:13:53;;;;;;;;;;;;;;;;;;5136086;27;19927;-76
2021/08/18 09:16:19;;;;;;;;;;;;;;;;;;5135501;27;19938;-76
2021/08/18 09:18:45;;;;;;;;;;;;;;;;;;5135875;27;19931;-75
2021/08/18 09:21:12;;;;;;;;;;;;;;;;;;5135470;27;19924;-75
2021/08/18 09:23:38;;;;;;;;;;;;;;;;;;5135981;27;19930;-75
2021/08/18 09:26:04;;;;;;;;;;;;;;;;;;5135486;27;19930;-75
2021/08/18 09:28:32;;;;;;;;;;;;;;;;;;5135429;27;19923;-76
2021/08/18 09:30:59;;;;;;;;;;;;;;;;;;5135339;27;20452;-75
2021/08/18 09:33:25;;;;;;;;;;;;;;;;;;5135169;27;20401;-75
2021/08/18 09:35:51;;;;;;;;;;;;;;;;;;5135667;27;19938;-75
2021/08/18 09:38:17;;;;;;;;;;;;;;;;;;5135033;27;19939;-75
2021/08/18 09:40:44;;;;;;;;;;;;;;;;;;5135421;27;19924;-75
2021/08/18 09:43:10;;;;;;;;;;;;;;;;;;5135388;27;19923;-77
2021/08/18 09:45:38;;;;;;;;;;;;;;;;;;5134855;27;19970;-75
2021/08/18 09:48:05;;;;;;;;;;;;;;;;;;5135341;27;19928;-75
2021/08/18 09:50:31;;;;;;;;;;;;;;;;;;5134714;27;20343;-75
2021/08/18 09:52:58;;;;;;;;;;;;;;;;;;5135337;27;19923;-75
2021/08/18 09:55:24;;;;;;;;;;;;;;;;;;5134634;27;20374;-75
2021/08/18 09:57:50;;;;;;;;;;;;;;;;;;5135223;27;19924;-76
2021/08/18 10:00:17;;;;;;;;;;;;;;;;;;5133904;27;19927;-76
2021/08/18 10:02:43;;;;;;;;;;;;;;;;;;5135081;27;19928;-75
2021/08/18 10:05:09;;;;;;;;;;;;;;;;;;5134663;27;20389;-76
2021/08/18 10:07:35;;;;;;;;;;;;;;;;;;5134681;27;19928;-75
2021/08/18 10:10:03;;;;;;;;;;;;;;;;;;5134588;27;20281;-75
2021/08/18 10:12:30;;;;;;;;;;;;;;;;;;5134323;27;19931;-75
2021/08/18 10:14:56;;;;;;;;;;;;;;;;;;5134935;27;19924;-75
2021/08/18 10:17:22;;;;;;;;;;;;;;;;;;5134114;27;19924;-76
2021/08/18 10:19:48;;;;;;;;;;;;;;;;;;5134217;27;19930;-75
2021/08/18 10:22:15;;;;;;;;;;;;;;;;;;5134185;27;19924;-76
2021/08/18 10:24:41;;;;;;;;;;;;;;;;;;5134605;27;19927;-76
2021/08/18 10:27:07;;;;;;;;;;;;;;;;;;5133979;27;19923;-76
2021/08/18 10:29:34;;;;;;;;;;;;;;;;;;5134295;27;19934;-77
2021/08/18 10:32:00;;;;;;;;;;;;;;;;;;5134199;27;19930;-77
2021/08/18 10:34:26;;;;;;;;;;;;;;;;;;5134037;27;19924;-77
2021/08/18 10:36:53;;;;;;;;;;;;;;;;;;5134340;27;19931;-77
2021/08/18 10:39:19;;;;;;;;;;;;;;;;;;5133823;27;19924;-77
2021/08/18 10:41:46;;;;;;;;;;;;;;;;;;5134432;27;19923;-76
2021/08/18 10:44:12;;;;;;;;;;;;;;;;;;5134037;27;19923;-76
2021/08/18 10:46:38;;;;;;;;;;;;;;;;;;5133916;27;20285;-76
2021/08/18 10:49:04;;;;;;;;;;;;;;;;;;5133911;27;19931;-76
2021/08/18 10:51:31;;;;;;;;;;;;;;;;;;5134018;27;19923;-76
2021/08/18 10:53:57;;;;;;;;;;;;;;;;;;5133919;27;19923;-76
2021/08/18 10:56:23;;;;;;;;;;;;;;;;;;5133534;27;20492;-76
2021/08/18 10:58:49;;;;;;;;;;;;;;;;;;5134035;27;19930;-76
2021/08/18 11:01:16;;;;;;;;;;;;;;;;;;5133561;27;20289;-76
2021/08/18 11:03:42;;;;;;;;;;;;;;;;;;5134072;27;19923;-76
2021/08/18 11:06:10;;;;;;;;;;;;;;;;;;5133523;27;19927;-77
2021/08/18 11:08:36;;;;;;;;;;;;;;;;;;5133421;27;20266;-76
2021/08/18 11:11:03;;;;;;;;;;;;;;;;;;5133514;27;19930;-77
2021/08/18 11:13:29;;;;;;;;;;;;;;;;;;5133666;27;19983;-77
2021/08/18 11:15:56;;;;;;;;;;;;;;;;;;5133565;27;19923;-77
2021/08/18 11:18:22;;;;;;;;;;;;;;;;;;5133522;27;19924;-77
2021/08/18 11:20:48;;;;;;;;;;;;;;;;;;5133179;27;19959;-76
2021/08/18 11:23:16;;;;;;;;;;;;;;;;;;5132511;27;20276;-77
2021/08/18 11:25:43;;;;;;;;;;;;;;;;;;5133336;27;20293;-77
2021/08/18 11:28:09;;;;;;;;;;;;;;;;;;5133634;28;19992;-77
2021/08/18 11:30:35;;;;;;;;;;;;;;;;;;5133084;28;19927;-77
2021/08/18 11:33:02;;;;;;;;;;;;;;;;;;5133642;28;19930;-76
2021/08/18 11:35:28;;;;;;;;;;;;;;;;;;5133137;28;19924;-77
2021/08/18 11:37:54;;;;;;;;;;;;;;;;;;5133554;28;19927;-77
2021/08/18 11:40:20;;;;;;;;;;;;;;;;;;5133018;28;19931;-77
2021/08/18 11:42:47;;;;;;;;;;;;;;;;;;5133627;28;19924;-76
2021/08/18 11:45:16;;;;;;;;;;;;;;;;;;5133220;28;19931;-76
2021/08/18 11:47:43;;;;;;;;;;;;;;;;;;5133206;28;20369;-76
2021/08/18 11:50:10;;;;;;;;;;;;;;;;;;5133393;28;19924;-76
2021/08/18 11:52:36;;;;;;;;;;;;;;;;;;5132880;28;19934;-77
2021/08/18 11:55:02;;;;;;;;;;;;;;;;;;5133513;28;19931;-76
2021/08/18 11:57:29;;;;;;;;;;;;;;;;;;5132912;28;20374;-76
2021/08/18 11:59:55;;;;;;;;;;;;;;;;;;5133325;28;19924;-76
2021/08/18 12:02:21;;;;;;;;;;;;;;;;;;5132775;28;19924;-76
2021/08/18 12:04:47;;;;;;;;;;;;;;;;;;5133393;28;19923;-76
2021/08/18 12:07:14;;;;;;;;;;;;;;;;;;5132940;28;19931;-76
2021/08/18 12:09:40;;;;;;;;;;;;;;;;;;5133293;28;19946;-76
2021/08/18 12:12:07;;;;;;;;;;;;;;;;;;5132965;28;19923;-76
2021/08/18 12:14:34;;;;;;;;;;;;;;;;;;5132864;28;19969;-76
2021/08/18 12:17:00;;;;;;;;;;;;;;;;;;5132923;28;20377;-76
2021/08/18 12:19:26;;;;;;;;;;;;;;;;;;5132611;28;19923;-75
2021/08/18 12:21:52;;;;;;;;;;;;;;;;;;5133256;28;20014;-76
2021/08/18 12:24:19;;;;;;;;;;;;;;;;;;5134824;27;20450;-76
2021/08/18 12:26:46;;;;;;;;;;;;;;;;;;5136886;27;19927;-76
2021/08/18 12:29:12;;;;;;;;;;;;;;;;;;5136648;27;19963;-76
2021/08/18 12:31:39;;;;;;;;;;;;;;;;;;5136364;27;20389;-76
2021/08/18 12:34:05;;;;;;;;;;;;;;;;;;5136820;27;19939;-76
2021/08/18 12:36:32;;;;;;;;;;;;;;;;;;5136261;27;20381;-76
2021/08/18 12:38:58;;;;;;;;;;;;;;;;;;5136803;27;19924;-76
2021/08/18 12:41:24;;;;;;;;;;;;;;;;;;5136044;27;20396;-76
2021/08/18 12:43:50;;;;;;;;;;;;;;;;;;5136652;27;19931;-76
2021/08/18 12:46:17;;;;;;;;;;;;;;;;;;5135976;27;19927;-76
2021/08/18 12:48:43;;;;;;;;;;;;;;;;;;5136549;27;19950;-77
2021/08/18 12:51:09;;;;;;;;;;;;;;;;;;5136263;27;19923;-76
2021/08/18 12:53:36;;;;;;;;;;;;;;;;;;5136072;27;19938;-77
2021/08/18 12:56:03;;;;;;;;;;;;;;;;;;5136051;27;20262;-77
2021/08/18 12:58:30;;;;;;;;;;;;;;;;;;5135856;27;19924;-76
2021/08/18 13:00:57;;;;;;;;;;;;;;;;;;5136433;27;19930;-77
2021/08/18 13:03:23;;;;;;;;;;;;;;;;;;5135801;27;19924;-76
2021/08/18 13:05:50;;;;;;;;;;;;;;;;;;5136277;27;19947;-77
2021/08/18 13:08:19;;;;;;;;;;;;;;;;;;5136047;27;20014;-77
2021/08/18 13:10:46;;;;;;;;;;;;;;;;;;5136128;27;20341;-77
2021/08/18 13:13:12;;;;;;;;;;;;;;;;;;5136140;27;19930;-77
2021/08/18 13:15:38;;;;;;;;;;;;;;;;;;5135463;27;20396;-77
2021/08/18 13:18:04;;;;;;;;;;;;;;;;;;5135964;27;19924;-77
2021/08/18 13:20:31;;;;;;;;;;;;;;;;;;5135110;27;20498;-77
2021/08/18 13:22:57;;;;;;;;;;;;;;;;;;5135516;27;19923;-77
2021/08/18 13:25:23;;;;;;;;;;;;;;;;;;5135341;27;20289;-77
2021/08/18 13:27:50;;;;;;;;;;;;;;;;;;5135690;27;19930;-77
2021/08/18 13:30:16;;;;;;;;;;;;;;;;;;5135230;27;20404;-76
2021/08/18 13:32:42;;;;;;;;;;;;;;;;;;5135614;27;19924;-76
2021/08/18 13:35:09;;;;;;;;;;;;;;;;;;5135180;27;19923;-77
2021/08/18 13:37:35;;;;;;;;;;;;;;;;;;5135359;27;19930;-77
2021/08/18 13:40:01;;;;;;;;;;;;;;;;;;5135272;27;19931;-77
2021/08/18 13:42:27;;;;;;;;;;;;;;;;;;5135305;27;19923;-77
2021/08/18 13:44:54;;;;;;;;;;;;;;;;;;5135215;27;19931;-77
2021/08/18 13:47:20;;;;;;;;;;;;;;;;;;5135113;27;19930;-76
2021/08/18 13:49:46;;;;;;;;;;;;;;;;;;5135331;27;19927;-76
2021/08/18 13:52:13;;;;;;;;;;;;;;;;;;5135212;27;19930;-77
2021/08/18 13:54:39;;;;;;;;;;;;;;;;;;5134854;27;20405;-77
2021/08/18 13:57:05;;;;;;;;;;;;;;;;;;5134984;27;19923;-77
2021/08/18 13:59:31;;;;;;;;;;;;;;;;;;5134955;27;20301;-77
2021/08/18 14:01:58;;;;;;;;;;;;;;;;;;5134801;27;19923;-77
2021/08/18 14:04:24;;;;;;;;;;;;;;;;;;5134439;27;20282;-77
2021/08/18 14:06:50;;;;;;;;;;;;;;;;;;5134554;27;19923;-77
2021/08/18 14:09:16;;;;;;;;;;;;;;;;;;5134708;27;19950;-77
2021/08/18 14:11:43;;;;;;;;;;;;;;;;;;5134520;27;19930;-77
2021/08/18 14:14:10;;;;;;;;;;;;;;;;;;5134621;27;19972;-77
2021/08/18 14:16:36;;;;;;;;;;;;;;;;;;5134135;27;20681;-77
2021/08/18 14:19:02;;;;;;;;;;;;;;;;;;5134616;27;19923;-77
2021/08/18 14:21:28;;;;;;;;;;;;;;;;;;5134001;27;19931;-77
2021/08/18 14:23:55;;;;;;;;;;;;;;;;;;5134725;27;19924;-77
2021/08/18 14:26:21;;;;;;;;;;;;;;;;;;5134107;27;19930;-77
2021/08/18 14:28:47;;;;;;;;;;;;;;;;;;5134601;27;19923;-77
2021/08/18 14:31:14;;;;;;;;;;;;;;;;;;5134307;27;20328;-77
2021/08/18 14:33:40;;;;;;;;;;;;;;;;;;5134293;27;19923;-77
2021/08/18 14:36:06;;;;;;;;;;;;;;;;;;5134142;27;20373;-76
2021/08/18 14:38:32;;;;;;;;;;;;;;;;;;5134196;27;19923;-77
2021/08/18 14:40:59;;;;;;;;;;;;;;;;;;5134149;27;19931;-77
2021/08/18 14:43:25;;;;;;;;;;;;;;;;;;5133998;27;19935;-77
2021/08/18 14:45:51;;;;;;;;;;;;;;;;;;5133551;27;19924;-77
2021/08/18 14:48:18;;;;;;;;;;;;;;;;;;5133888;27;19934;-77
2021/08/18 14:50:44;;;;;;;;;;;;;;;;;;5133887;27;20373;-77
2021/08/18 14:53:10;;;;;;;;;;;;;;;;;;5134246;27;19992;-77
2021/08/18 14:55:37;;;;;;;;;;;;;;;;;;5133642;27;19931;-76
2021/08/18 14:58:04;;;;;;;;;;;;;;;;;;5133937;27;20244;-76
2021/08/18 15:00:30;;;;;;;;;;;;;;;;;;5133527;27;20338;-77
2021/08/18 15:02:56;;;;;;;;;;;;;;;;;;5134074;27;19934;-77
2021/08/18 15:05:22;;;;;;;;;;;;;;;;;;5133471;27;20400;-77
2021/08/18 15:07:49;;;;;;;;;;;;;;;;;;5133738;27;19924;-77
2021/08/18 15:10:15;;;;;;;;;;;;;;;;;;5134026;27;20288;-76
2021/08/18 15:12:41;;;;;;;;;;;;;;;;;;5133600;27;19923;-76
2021/08/18 15:15:08;;;;;;;;;;;;;;;;;;5133555;27;20266;-77
2021/08/18 15:17:34;;;;;;;;;;;;;;;;;;5133512;27;19927;-76
2021/08/18 15:20:00;;;;;;;;;;;;;;;;;;5133414;27;19924;-76
2021/08/18 15:22:26;;;;;;;;;;;;;;;;;;5133571;27;19928;-76
2021/08/18 15:24:53;;;;;;;;;;;;;;;;;;5133473;27;19930;-77
2021/08/18 15:27:19;;;;;;;;;;;;;;;;;;5133256;27;19946;-76
2021/08/18 15:29:45;;;;;;;;;;;;;;;;;;5133467;28;19930;-77
2021/08/18 15:32:11;;;;;;;;;;;;;;;;;;5133572;28;19931;-77
2021/08/18 15:34:38;;;;;;;;;;;;;;;;;;5132964;28;19924;-77
2021/08/18 15:37:04;;;;;;;;;;;;;;;;;;5133493;28;19931;-77
2021/08/18 15:39:30;;;;;;;;;;;;;;;;;;5133074;28;19923;-77
2021/08/18 15:41:57;;;;;;;;;;;;;;;;;;5133565;28;19927;-76
2021/08/18 15:44:23;;;;;;;;;;;;;;;;;;5134147;28;20381;-76
2021/08/18 15:46:49;;;;;;;;;;;;;;;;;;5133548;28;19931;-76
2021/08/18 15:49:15;;;;;;;;;;;;;;;;;;5133109;28;19931;-76
2021/08/18 15:51:42;;;;;;;;;;;;;;;;;;5133334;28;19923;-77
2021/08/18 15:54:08;;;;;;;;;;;;;;;;;;5133277;28;19924;-76
2021/08/18 15:56:35;;;;;;;;;;;;;;;;;;5132836;28;19924;-77
2021/08/18 15:59:01;;;;;;;;;;;;;;;;;;5137095;27;19930;-76
2021/08/18 16:01:27;;;;;;;;;;;;;;;;;;5137337;27;19933;-76
2021/08/18 16:03:53;;;;;;;;;;;;;;;;;;5137399;27;19923;-77
2021/08/18 16:06:20;;;;;;;;;;;;;;;;;;5136883;27;19923;-76
2021/08/18 16:08:46;;;;;;;;;;;;;;;;;;5136980;27;20262;-76
2021/08/18 16:11:12;;;;;;;;;;;;;;;;;;5137315;27;19930;-76
2021/08/18 16:13:38;;;;;;;;;;;;;;;;;;5137017;27;19948;-76
2021/08/18 16:16:05;;;;;;;;;;;;;;;;;;5137315;27;19930;-77
2021/08/18 16:18:31;;;;;;;;;;;;;;;;;;5137017;27;19923;-77
2021/08/18 16:20:57;;;;;;;;;;;;;;;;;;5136661;27;19928;-77
2021/08/18 16:23:24;;;;;;;;;;;;;;;;;;5136964;27;19924;-77
2021/08/18 16:25:50;;;;;;;;;;;;;;;;;;5136813;27;19923;-77
2021/08/18 16:28:16;;;;;;;;;;;;;;;;;;5136335;27;20270;-76
2021/08/18 16:30:42;;;;;;;;;;;;;;;;;;5137022;27;19930;-76
2021/08/18 16:33:09;;;;;;;;;;;;;;;;;;5136886;27;20273;-76
2021/08/18 16:35:35;;;;;;;;;;;;;;;;;;5136448;27;19930;-77
2021/08/18 16:38:01;;;;;;;;;;;;;;;;;;5136887;27;19923;-76